Time;durP1;ratioP1;P1;durP2;ratioP2;P2;SDS_P1;SDS_P2;PMS_P1;PMS_P2;Temp;Humidity;BMP_temperature;BMP_pressure;BME280_temperature;BME280_humidity;BME280_pressure;Samples;Min_cycle;Max_cycle;Signal;HPM_P1;HPM_P2
2022/01/05 00:02:12;;;;;;;2.17;0.95;;;;;;;3.37;83.97;98256.22;5052192;28;20481;-85
2022/01/05 00:04:38;;;;;;;2.83;0.95;;;;;;;3.23;84.53;98258.50;5052347;28;20355;-85
2022/01/05 00:09:48;;;;;;;5.10;1.77;;;;;;;3.28;84.79;98260.41;5053017;28;20031;-85
2022/01/05 00:12:14;;;;;;;5.25;1.55;;;;;;;3.01;84.40;98264.69;5051571;28;20020;-84
2022/01/05 00:14:39;;;;;;;3.92;1.88;;;;;;;3.01;85.15;98267.38;5051734;28;20028;-83
2022/01/05 00:17:05;;;;;;;6.25;2.60;;;;;;;2.97;84.99;98268.97;5052217;28;20375;-85
2022/01/05 00:19:30;;;;;;;5.70;2.30;;;;;;;3.25;84.86;98275.19;5051615;28;20504;-85
2022/01/05 00:21:55;;;;;;;6.68;2.13;;;;;;;3.47;83.83;98273.53;5053861;28;20040;-85
2022/01/05 00:24:21;;;;;;;2.92;1.27;;;;;;;3.41;83.91;98272.66;5051035;28;20505;-84
2022/01/05 00:26:46;;;;;;;17.98;3.20;;;;;;;3.23;84.71;98265.75;5052792;28;20025;-84
2022/01/05 00:29:11;;;;;;;7.72;2.33;;;;;;;3.20;84.27;98272.44;5052286;28;20479;-85
2022/01/05 00:31:37;;;;;;;5.25;2.80;;;;;;;3.28;85.35;98284.66;5050459;28;20048;-85
2022/01/05 00:34:03;;;;;;;7.05;1.83;;;;;;;3.29;84.98;98275.53;5051641;28;20054;-85
2022/01/05 00:36:28;;;;;;;6.55;2.50;;;;;;;3.48;86.21;98277.84;5051312;28;20109;-86
2022/01/05 00:38:53;;;;;;;4.18;1.75;;;;;;;3.72;83.44;98278.34;5051400;28;20356;-86
2022/01/05 00:41:19;;;;;;;14.48;3.88;;;;;;;3.59;83.52;98274.19;5048407;28;20048;-86
2022/01/05 00:43:44;;;;;;;6.25;2.15;;;;;;;3.58;83.69;98272.56;5049938;28;20124;-85
2022/01/05 00:46:09;;;;;;;6.72;2.15;;;;;;;3.62;83.84;98272.88;5046584;28;20621;-86
2022/01/05 00:48:35;;;;;;;7.80;2.72;;;;;;;3.47;83.75;98281.63;5047616;28;20071;-86
2022/01/05 00:51:06;;;;;;;4.55;2.25;;;;;;;3.34;84.19;98278.25;5048699;28;20226;-85
2022/01/05 00:53:32;;;;;;;6.75;3.40;;;;;;;3.44;84.69;98277.53;5050578;28;20036;-85
2022/01/05 00:55:57;;;;;;;5.45;2.33;;;;;;;3.57;84.22;98276.34;5052787;28;20017;-85
2022/01/05 00:58:23;;;;;;;7.45;2.85;;;;;;;3.55;83.80;98273.06;5050843;28;20036;-86
2022/01/05 01:00:48;;;;;;;7.80;3.10;;;;;;;3.52;84.34;98273.56;5051952;28;20028;-85
2022/01/05 01:03:13;;;;;;;10.77;3.30;;;;;;;3.52;83.02;98270.88;5052842;28;20020;-86
2022/01/05 01:05:39;;;;;;;5.43;2.33;;;;;;;3.51;83.39;98271.97;5050284;28;20414;-85
2022/01/05 01:08:04;;;;;;;11.07;5.25;;;;;;;3.57;83.15;98276.34;5053410;28;20025;-85
2022/01/05 01:10:44;;;;;;;9.98;3.03;;;;;;;3.49;84.14;98280.31;5053065;28;20020;-85
2022/01/05 01:13:09;;;;;;;7.65;2.60;;;;;;;3.54;83.10;98276.03;5049299;28;20013;-85
2022/01/05 01:15:34;;;;;;;7.47;3.20;;;;;;;3.37;83.66;98272.38;5055977;28;20055;-84
2022/01/05 01:18:00;;;;;;;8.20;3.08;;;;;;;3.26;85.16;98276.00;5055481;28;20372;-84
2022/01/05 01:20:25;;;;;;;6.47;3.17;;;;;;;3.39;85.24;98280.19;5055993;28;20052;-85
2022/01/05 01:22:51;;;;;;;10.90;2.85;;;;;;;3.45;84.62;98278.38;5064016;28;20029;-85
2022/01/05 01:25:16;;;;;;;7.65;2.45;;;;;;;3.35;84.97;98285.28;5055385;28;20028;-85
2022/01/05 01:27:43;;;;;;;6.85;3.30;;;;;;;3.21;85.18;98284.88;5057515;28;20052;-85
2022/01/05 01:30:09;;;;;;;9.20;3.40;;;;;;;3.29;84.82;98289.00;5054878;28;20040;-85
2022/01/05 01:32:35;;;;;;;10.50;4.43;;;;;;;3.40;85.06;98297.19;5059275;28;20090;-85
2022/01/05 01:35:02;;;;;;;11.05;4.50;;;;;;;3.35;85.13;98300.63;5060687;28;20823;-85
2022/01/05 01:37:27;;;;;;;12.82;5.18;;;;;;;3.40;84.96;98302.56;5056474;28;20021;-84
2022/01/05 01:39:53;;;;;;;29.35;3.67;;;;;;;3.58;83.28;98299.50;5058095;28;20356;-85
2022/01/05 01:42:18;;;;;;;8.45;3.40;;;;;;;3.63;83.08;98309.53;5058196;28;20032;-85
2022/01/05 01:44:44;;;;;;;10.50;3.53;;;;;;;3.55;84.10;98310.81;5059741;28;20017;-85
2022/01/05 01:47:09;;;;;;;9.80;3.72;;;;;;;3.43;84.21;98302.88;5056094;28;20021;-84
2022/01/05 01:49:35;;;;;;;6.90;3.42;;;;;;;3.55;83.74;98308.13;5057521;28;20021;-85
2022/01/05 01:52:00;;;;;;;11.45;3.75;;;;;;;3.55;84.64;98301.91;5058378;28;20116;-85
2022/01/05 01:54:28;;;;;;;12.00;4.15;;;;;;;3.49;83.50;98304.56;5058297;28;20098;-85
2022/01/05 01:56:53;;;;;;;10.45;4.65;;;;;;;3.50;83.54;98305.34;5059912;28;20028;-84
2022/01/05 01:59:19;;;;;;;9.18;3.90;;;;;;;3.64;84.28;98307.66;5057498;28;20062;-85
2022/01/05 02:01:44;;;;;;;9.77;4.60;;;;;;;3.49;84.31;98306.44;5059203;28;20025;-84
2022/01/05 02:04:09;;;;;;;9.38;3.55;;;;;;;3.41;84.71;98301.50;5056470;28;20554;-84
2022/01/05 02:06:35;;;;;;;14.05;4.50;;;;;;;3.62;83.67;98306.03;5058534;28;20027;-84
2022/01/05 02:09:00;;;;;;;13.05;3.85;;;;;;;3.40;84.42;98292.59;5056893;28;20021;-85
2022/01/05 02:11:26;;;;;;;9.43;4.65;;;;;;;3.31;85.24;98299.50;5058285;28;20028;-85
2022/01/05 02:13:51;;;;;;;8.73;3.45;;;;;;;3.64;84.01;98313.06;5057190;28;20033;-85
2022/01/05 02:16:25;;;;;;;8.88;3.17;;;;;;;3.56;84.30;98317.81;5057396;28;20125;-84
2022/01/05 02:18:59;;;;;;;8.35;2.97;;;;;;;3.55;84.32;98312.69;5057722;28;20067;-84
2022/01/05 02:21:31;;;;;;;13.68;4.70;;;;;;;3.65;84.40;98310.09;5055515;28;20726;-85
2022/01/05 02:23:57;;;;;;;19.98;5.97;;;;;;;3.68;84.43;98314.16;5058229;28;20032;-84
2022/01/05 02:26:23;;;;;;;10.35;4.50;;;;;;;3.70;84.68;98317.44;5056958;28;20526;-85
2022/01/05 02:28:49;;;;;;;11.00;5.15;;;;;;;4.08;82.81;98310.22;5057427;28;20040;-85
2022/01/05 02:31:14;;;;;;;12.27;4.72;;;;;;;3.82;83.36;98312.66;5056251;28;20525;-84
2022/01/05 02:33:40;;;;;;;16.23;6.43;;;;;;;3.71;83.90;98313.66;5055559;28;20038;-85
2022/01/05 02:36:20;;;;;;;11.65;5.15;;;;;;;3.56;84.99;98314.31;5057804;28;20025;-85
2022/01/05 02:38:48;;;;;;;13.32;7.00;;;;;;;3.59;84.81;98322.72;5054653;28;20021;-84
2022/01/05 02:41:13;;;;;;;15.77;8.10;;;;;;;3.60;85.18;98323.53;5058788;28;20032;-85
2022/01/05 02:43:40;;;;;;;16.33;8.68;;;;;;;3.53;85.37;98334.50;5057729;28;20021;-85
2022/01/05 02:46:11;;;;;;;18.55;7.40;;;;;;;3.58;85.49;98334.53;5057538;28;20024;-84
2022/01/05 02:48:36;;;;;;;13.65;7.18;;;;;;;3.61;84.28;98331.34;5055818;28;20511;-84
2022/01/05 02:51:02;;;;;;;17.40;8.45;;;;;;;3.89;83.47;98331.34;5054999;28;20029;-85
2022/01/05 02:53:27;;;;;;;17.15;8.38;;;;;;;3.77;83.13;98336.06;5057521;28;20025;-85
2022/01/05 02:55:53;;;;;;;15.82;7.20;;;;;;;3.75;84.58;98336.34;5053333;28;20119;-84
2022/01/05 02:58:18;;;;;;;16.55;8.93;;;;;;;3.58;84.48;98337.25;5055788;28;20733;-84
2022/01/05 03:00:45;;;;;;;18.33;9.77;;;;;;;3.72;83.70;98348.44;5056937;28;20036;-85
2022/01/05 03:03:10;;;;;;;18.80;9.43;;;;;;;3.72;84.31;98347.63;5054756;28;20123;-85
2022/01/05 03:05:35;;;;;;;17.33;8.98;;;;;;;3.58;84.29;98344.53;5058108;28;20190;-84
2022/01/05 03:08:00;;;;;;;15.32;8.15;;;;;;;3.58;84.92;98350.72;5062317;28;20121;-85
2022/01/05 03:10:26;;;;;;;17.27;8.95;;;;;;;3.58;84.53;98348.03;5057747;28;20032;-85
2022/01/05 03:12:51;;;;;;;15.98;8.30;;;;;;;3.51;83.72;98360.88;5056457;28;20682;-85
2022/01/05 03:15:17;;;;;;;18.17;8.30;;;;;;;3.66;84.49;98360.22;5056004;28;20029;-84
2022/01/05 03:17:43;;;;;;;26.35;7.57;;;;;;;3.64;83.45;98366.97;5054603;28;20043;-84
2022/01/05 03:20:10;;;;;;;20.38;8.48;;;;;;;3.55;83.65;98369.28;5056735;28;20031;-85
2022/01/05 03:22:37;;;;;;;18.85;8.52;;;;;;;3.48;84.30;98375.69;5056065;28;20146;-84
2022/01/05 03:25:03;;;;;;;16.45;9.30;;;;;;;3.63;82.95;98379.63;5054895;28;20020;-85
2022/01/05 03:27:29;;;;;;;23.70;8.55;;;;;;;3.60;82.54;98389.00;5056431;28;20494;-85
2022/01/05 03:29:54;;;;;;;19.42;6.75;;;;;;;3.41;83.12;98385.03;5055742;28;21129;-84
2022/01/05 03:32:20;;;;;;;23.10;7.60;;;;;;;3.14;84.29;98383.88;5056923;28;20037;-84
2022/01/05 03:37:49;;;;;;;15.45;6.55;;;;;;;3.35;83.48;98392.25;5049582;28;20560;-84
2022/01/05 03:40:15;;;;;;;12.40;6.68;;;;;;;3.38;82.86;98403.31;5056075;28;20029;-85
2022/01/05 03:42:40;;;;;;;16.48;6.85;;;;;;;3.26;83.20;98410.72;5057091;28;20025;-85
2022/01/05 03:45:06;;;;;;;16.77;6.65;;;;;;;3.27;83.23;98413.13;5056578;28;20021;-85
2022/01/05 03:47:31;;;;;;;17.75;7.00;;;;;;;3.35;82.59;98409.22;5054273;28;20028;-85
2022/01/05 03:49:57;;;;;;;10.60;5.28;;;;;;;3.22;83.04;98410.41;5056778;28;20384;-83
2022/01/05 03:52:22;;;;;;;18.35;6.93;;;;;;;3.03;82.46;98428.72;5054460;28;20028;-84
2022/01/05 03:54:47;;;;;;;19.73;7.38;;;;;;;3.08;83.03;98442.25;5057066;28;20036;-84
2022/01/05 03:57:13;;;;;;;13.38;5.40;;;;;;;2.90;82.71;98435.28;5054982;28;20036;-84
2022/01/05 03:59:38;;;;;;;12.48;5.50;;;;;;;3.17;81.48;98439.97;5054606;28;20017;-83
2022/01/05 04:02:03;;;;;;;12.23;5.17;;;;;;;3.32;80.87;98441.22;5056494;28;20021;-85
2022/01/05 04:04:29;;;;;;;11.40;5.65;;;;;;;3.27;81.39;98434.69;5053204;28;20253;-85
2022/01/05 04:06:54;;;;;;;11.45;4.25;;;;;;;3.09;82.08;98443.88;5056946;28;20032;-85
2022/01/05 04:09:19;;;;;;;13.35;4.97;;;;;;;2.97;82.65;98445.88;5052557;28;20028;-84
2022/01/05 04:11:44;;;;;;;17.77;5.50;;;;;;;2.84;83.07;98447.84;5058120;28;20062;-84
2022/01/05 04:14:10;;;;;;;15.38;4.85;;;;;;;2.95;82.23;98448.78;5055890;28;20097;-84
2022/01/05 04:16:36;;;;;;;15.25;6.20;;;;;;;2.82;82.14;98444.59;5056147;28;20179;-85
2022/01/05 04:19:01;;;;;;;9.18;3.63;;;;;;;2.82;82.44;98449.97;5055892;28;20508;-84
2022/01/05 04:21:26;;;;;;;9.93;4.82;;;;;;;2.82;82.45;98452.66;5053697;28;20911;-85
2022/01/05 04:26:55;;;;;;;10.82;3.05;;;;;;;2.82;81.76;98454.53;5053992;28;20555;-85
2022/01/05 04:29:20;;;;;;;12.60;3.88;;;;;;;2.93;81.89;98467.06;5053127;28;20107;-85
2022/01/05 04:31:45;;;;;;;13.38;4.63;;;;;;;2.56;81.84;98473.78;5055038;28;20463;-85
2022/01/05 04:34:12;;;;;;;9.73;3.58;;;;;;;2.72;82.29;98471.34;5053699;28;20033;-84
2022/01/05 04:36:37;;;;;;;12.73;3.90;;;;;;;2.79;81.29;98474.66;5055037;28;20033;-84
2022/01/05 04:39:03;;;;;;;13.70;4.40;;;;;;;2.95;79.87;98485.69;5055349;28;20383;-84
2022/01/05 04:41:29;;;;;;;10.32;4.53;;;;;;;2.95;80.16;98483.81;5055271;28;20052;-84
2022/01/05 04:43:54;;;;;;;8.07;3.05;;;;;;;2.61;80.33;98481.94;5053491;28;20017;-85
2022/01/05 04:46:19;;;;;;;10.98;3.45;;;;;;;2.74;80.55;98488.06;5056565;28;20120;-84
2022/01/05 04:48:45;;;;;;;8.13;3.20;;;;;;;2.82;79.87;98484.97;5055503;28;20031;-84
2022/01/05 04:54:13;;;;;;;9.68;2.55;;;;;;;2.77;79.82;98484.88;5057578;28;20129;-84
2022/01/05 04:56:38;;;;;;;11.85;3.80;;;;;;;2.59;79.79;98486.75;5056134;28;20029;-84
2022/01/05 04:59:04;;;;;;;8.48;3.35;;;;;;;2.60;79.71;98485.69;5059542;28;20056;-84
2022/01/05 05:01:29;;;;;;;12.27;4.05;;;;;;;2.66;79.18;98494.66;5056891;28;20052;-85
2022/01/05 05:03:55;;;;;;;10.75;2.95;;;;;;;2.56;79.22;98487.25;5058303;28;20132;-84
2022/01/05 05:06:22;;;;;;;9.77;3.33;;;;;;;2.48;79.60;98495.72;5060364;28;20039;-84
2022/01/05 05:08:48;;;;;;;10.00;3.17;;;;;;;2.44;79.93;98496.19;5057308;28;20036;-84
2022/01/05 05:11:13;;;;;;;10.73;3.85;;;;;;;2.32;79.45;98493.53;5058621;28;20372;-84
2022/01/05 05:17:00;;;;;;;8.40;2.90;;;;;;;2.41;79.10;98493.97;5058639;28;20048;-84
2022/01/05 05:19:25;;;;;;;11.05;2.47;;;;;;;2.24;79.58;98493.13;5060780;28;20025;-84
2022/01/05 05:21:51;;;;;;;14.52;3.03;;;;;;;2.56;78.39;98489.94;5057495;28;20429;-85
2022/01/05 05:24:16;;;;;;;5.93;1.67;;;;;;;2.49;78.71;98489.25;5058359;28;20045;-85
2022/01/05 05:26:42;;;;;;;9.10;3.65;;;;;;;2.45;78.67;98500.50;5057334;28;20642;-85
2022/01/05 05:29:08;;;;;;;9.63;3.47;;;;;;;2.50;78.97;98489.00;5059235;28;20025;-84
2022/01/05 05:31:33;;;;;;;10.63;2.42;;;;;;;2.43;78.63;98499.13;5057028;28;20071;-84
2022/01/05 05:33:59;;;;;;;9.70;2.97;;;;;;;2.39;79.73;98506.84;5059351;28;20032;-84
2022/01/05 05:36:24;;;;;;;11.20;3.75;;;;;;;2.53;77.77;98507.38;5058874;28;20159;-84
2022/01/05 05:38:49;;;;;;;7.05;2.47;;;;;;;2.64;77.63;98502.16;5056584;28;20484;-84
2022/01/05 05:41:15;;;;;;;13.82;3.22;;;;;;;2.45;77.85;98503.22;5059833;28;20029;-84
2022/01/05 05:43:41;;;;;;;10.52;3.45;;;;;;;2.28;79.27;98511.22;5058029;28;20024;-84
2022/01/05 05:46:07;;;;;;;8.23;3.58;;;;;;;2.36;78.86;98512.72;5073102;28;20036;-84
2022/01/05 05:48:32;;;;;;;7.80;2.97;;;;;;;2.25;78.74;98508.22;5058897;28;20028;-84
2022/01/05 05:50:57;;;;;;;11.85;4.13;;;;;;;2.53;78.01;98502.00;5059519;28;20477;-84
2022/01/05 05:53:23;;;;;;;6.72;2.70;;;;;;;2.57;77.56;98499.63;5058090;28;20040;-84
2022/01/05 05:55:48;;;;;;;11.25;2.72;;;;;;;2.66;77.12;98502.75;5055967;28;20110;-83
2022/01/05 05:58:13;;;;;;;12.35;4.13;;;;;;;2.60;77.29;98507.22;5059224;28;20021;-85
2022/01/05 06:00:38;;;;;;;11.03;3.33;;;;;;;2.54;77.56;98497.44;5056472;28;20491;-83
2022/01/05 06:03:04;;;;;;;15.65;3.13;;;;;;;2.44;77.43;98509.63;5058594;28;20269;-84
2022/01/05 06:05:29;;;;;;;13.90;2.45;;;;;;;2.36;77.86;98512.72;5057085;28;20094;-83
2022/01/05 06:07:54;;;;;;;16.05;3.40;;;;;;;2.47;77.76;98504.81;5059608;28;20057;-83
2022/01/05 06:10:20;;;;;;;10.87;5.20;;;;;;;2.56;76.32;98506.06;5057375;28;20036;-84
2022/01/05 06:12:45;;;;;;;10.88;3.00;;;;;;;2.50;76.99;98496.28;5057569;28;20285;-84
2022/01/05 06:15:10;;;;;;;11.82;2.80;;;;;;;2.64;76.55;98494.09;5058448;28;20051;-84
2022/01/05 06:17:36;;;;;;;11.02;4.35;;;;;;;2.29;77.01;98506.66;5057718;28;20028;-84
2022/01/05 06:20:04;;;;;;;11.90;3.17;;;;;;;2.49;76.71;98511.59;5057988;28;20028;-84
2022/01/05 06:22:30;;;;;;;16.83;2.88;;;;;;;2.60;76.10;98520.69;5054388;28;20037;-83
2022/01/05 06:24:55;;;;;;;13.07;4.10;;;;;;;2.63;76.50;98525.56;5057452;28;20581;-84
2022/01/05 06:27:20;;;;;;;7.00;3.50;;;;;;;2.44;77.23;98528.47;5053078;28;20107;-85
2022/01/05 06:29:46;;;;;;;17.80;4.30;;;;;;;2.41;76.79;98509.31;5056982;28;20427;-84
2022/01/05 06:32:11;;;;;;;10.75;4.18;;;;;;;2.45;76.43;98522.03;5057470;28;20037;-84
2022/01/05 06:34:36;;;;;;;8.40;3.13;;;;;;;2.29;76.92;98530.88;5055713;28;20024;-84
2022/01/05 06:37:02;;;;;;;11.65;3.53;;;;;;;2.54;77.13;98535.91;5057640;28;20035;-83
2022/01/05 06:39:27;;;;;;;20.33;4.50;;;;;;;2.52;76.41;98534.53;5056080;28;20037;-83
2022/01/05 06:41:53;;;;;;;20.65;4.25;;;;;;;2.58;76.13;98535.44;5056469;28;20440;-84
2022/01/05 06:44:20;;;;;;;8.57;4.32;;;;;;;2.73;75.92;98530.31;5053899;28;20060;-83
2022/01/05 06:46:45;;;;;;;7.25;3.10;;;;;;;2.78;76.39;98538.47;5057380;28;20451;-84
2022/01/05 06:49:10;;;;;;;12.05;4.70;;;;;;;2.62;76.75;98540.09;5053844;28;20481;-84
2022/01/05 06:51:36;;;;;;;12.73;3.90;;;;;;;2.94;75.36;98529.81;5057872;28;20054;-84
2022/01/05 06:54:01;;;;;;;14.55;3.50;;;;;;;2.86;75.43;98544.50;5058724;28;20245;-84
2022/01/05 06:56:26;;;;;;;15.95;5.57;;;;;;;2.73;76.84;98549.16;5053808;28;20111;-84
2022/01/05 06:58:52;;;;;;;13.68;4.55;;;;;;;2.79;76.36;98547.34;5058651;28;20032;-85
2022/01/05 07:01:17;;;;;;;18.55;3.88;;;;;;;2.55;76.39;98544.78;5055845;28;20027;-84
2022/01/05 07:03:42;;;;;;;16.85;3.38;;;;;;;2.56;76.88;98552.63;5055791;28;20067;-84
2022/01/05 07:06:08;;;;;;;22.73;3.90;;;;;;;2.86;76.22;98556.09;5055989;28;20056;-84
2022/01/05 07:08:33;;;;;;;8.10;2.38;;;;;;;2.93;75.85;98558.63;5056555;28;20111;-84
2022/01/05 07:10:58;;;;;;;6.47;2.92;;;;;;;2.96;75.24;98568.09;5054402;28;20758;-84
2022/01/05 07:13:24;;;;;;;9.93;4.13;;;;;;;2.79;76.01;98558.94;5053430;28;20025;-85
2022/01/05 07:15:49;;;;;;;20.85;5.88;;;;;;;2.77;76.09;98554.84;5054823;28;20031;-84
2022/01/05 07:18:15;;;;;;;9.73;3.17;;;;;;;2.92;75.47;98552.44;5053534;28;20036;-84
2022/01/05 07:20:40;;;;;;;7.97;3.00;;;;;;;2.97;74.93;98553.59;5055650;28;20029;-85
2022/01/05 07:23:08;;;;;;;13.82;4.47;;;;;;;2.86;75.19;98561.50;5051740;28;20033;-85
2022/01/05 07:28:18;;;;;;;;;;;;;;;2.91;75.54;98561.56;5052232;28;20094;-84
2022/01/05 07:30:43;;;;;;;14.33;4.90;;;;;;;2.82;75.95;98557.66;5052579;28;19967;-84
2022/01/05 07:33:08;;;;;;;19.95;4.78;;;;;;;2.87;75.38;98562.28;5054957;28;20031;-84
2022/01/05 07:35:34;;;;;;;13.23;4.88;;;;;;;2.72;75.59;98573.63;5055072;28;20024;-83
2022/01/05 07:37:59;;;;;;;9.32;4.45;;;;;;;2.95;74.95;98561.09;5055731;28;20024;-84
2022/01/05 07:40:24;;;;;;;11.23;4.93;;;;;;;2.76;75.88;98564.00;5054621;28;20078;-84
2022/01/05 07:42:50;;;;;;;27.10;5.47;;;;;;;2.70;75.64;98555.03;5054943;28;20032;-84
2022/01/05 07:45:15;;;;;;;19.42;4.30;;;;;;;2.56;76.66;98578.75;5055012;28;20075;-84
2022/01/05 07:47:40;;;;;;;14.85;4.30;;;;;;;2.55;77.38;98559.06;5054368;28;20074;-84
2022/01/05 07:50:14;;;;;;;7.88;3.40;;;;;;;2.84;76.30;98565.47;5052663;28;20233;-84
2022/01/05 07:52:39;;;;;;;10.97;4.03;;;;;;;2.82;76.56;98589.13;5051068;28;20098;-85
2022/01/05 07:55:07;;;;;;;10.77;3.72;;;;;;;2.79;76.70;98595.81;5056767;28;20029;-84
2022/01/05 07:57:47;;;;;;;9.32;3.42;;;;;;;2.95;76.45;98604.19;5053388;28;20058;-85
2022/01/05 08:00:13;;;;;;;12.40;5.20;;;;;;;2.80;76.68;98602.84;5055052;28;20025;-84
2022/01/05 08:02:38;;;;;;;13.57;4.72;;;;;;;2.94;75.43;98594.47;5053954;28;20033;-85
2022/01/05 08:05:04;;;;;;;14.35;4.45;;;;;;;2.70;76.92;98602.66;5055272;28;20491;-84
2022/01/05 08:07:30;;;;;;;14.40;4.35;;;;;;;2.77;77.35;98592.53;5056686;28;20033;-84
2022/01/05 08:09:55;;;;;;;22.90;5.40;;;;;;;2.90;76.77;98596.81;5053964;28;20013;-85
2022/01/05 08:12:20;;;;;;;11.05;4.35;;;;;;;2.94;76.40;98611.44;5054669;28;20276;-84
2022/01/05 08:14:46;;;;;;;10.30;4.00;;;;;;;3.02;76.49;98610.22;5052639;28;20128;-85
2022/01/05 08:17:11;;;;;;;12.07;3.47;;;;;;;3.04;76.94;98613.47;5055421;28;20032;-83
2022/01/05 08:19:36;;;;;;;22.25;4.07;;;;;;;3.04;76.02;98608.09;5052781;28;20033;-85
2022/01/05 08:22:02;;;;;;;19.45;5.93;;;;;;;3.24;75.51;98613.00;5056089;28;20028;-84
2022/01/05 08:24:27;;;;;;;9.10;3.70;;;;;;;3.15;75.58;98609.88;5052778;28;20025;-85
2022/01/05 08:26:53;;;;;;;13.52;4.80;;;;;;;2.96;76.02;98605.81;5054204;28;20054;-84
2022/01/05 08:29:19;;;;;;;12.35;4.22;;;;;;;2.99;76.40;98616.09;5066584;28;20029;-84
2022/01/05 08:32:02;;;;;;;11.80;3.00;;;;;;;2.86;76.76;98617.22;5049280;28;20049;-84
2022/01/05 08:34:29;;;;;;;35.35;4.40;;;;;;;2.71;76.78;98628.50;5054741;28;20041;-84
2022/01/05 08:36:55;;;;;;;12.68;4.75;;;;;;;2.95;76.60;98618.44;5053135;28;20101;-85
2022/01/05 08:39:22;;;;;;;9.85;3.65;;;;;;;3.17;75.77;98612.38;5056121;28;20025;-84
2022/01/05 08:41:48;;;;;;;15.50;5.63;;;;;;;3.23;75.94;98615.97;5054081;28;20123;-85
2022/01/05 08:44:13;;;;;;;8.55;4.18;;;;;;;3.18;75.93;98626.63;5046704;28;20032;-84
2022/01/05 08:46:38;;;;;;;9.60;4.10;;;;;;;3.07;76.54;98620.28;5051948;28;20120;-85
2022/01/05 08:49:04;;;;;;;17.50;4.43;;;;;;;3.10;76.75;98620.59;5053471;28;20107;-85
2022/01/05 08:51:29;;;;;;;12.50;4.28;;;;;;;3.10;76.95;98617.06;5055473;28;20471;-84
2022/01/05 08:53:54;;;;;;;17.02;4.03;;;;;;;3.30;75.64;98616.59;5053803;28;20024;-84
2022/01/05 08:56:23;;;;;;;19.30;5.10;;;;;;;3.26;75.60;98610.88;5054887;28;20036;-84
2022/01/05 08:58:49;;;;;;;12.45;4.20;;;;;;;3.19;76.10;98609.41;5054893;28;20029;-84
2022/01/05 09:01:14;;;;;;;13.57;5.75;;;;;;;3.19;76.46;98620.19;5053023;28;20028;-83
2022/01/05 09:03:40;;;;;;;11.68;4.97;;;;;;;3.07;76.89;98622.97;5055678;28;20029;-85
2022/01/05 09:06:06;;;;;;;8.68;2.80;;;;;;;3.15;77.14;98620.66;5054609;28;20412;-84
2022/01/05 09:08:32;;;;;;;13.98;4.43;;;;;;;3.26;77.09;98593.91;5054599;28;20021;-84
2022/01/05 09:10:57;;;;;;;9.23;3.97;;;;;;;3.12;77.06;98612.25;5053820;28;20070;-83
2022/01/05 09:13:23;;;;;;;12.38;4.55;;;;;;;3.22;76.83;98607.06;5056526;28;20028;-83
2022/01/05 09:15:48;;;;;;;11.48;4.90;;;;;;;3.32;76.42;98606.41;5054694;28;20056;-85
2022/01/05 09:18:15;;;;;;;31.45;6.40;;;;;;;3.43;76.05;98598.47;5051746;28;20021;-84
2022/01/05 09:20:41;;;;;;;12.23;6.32;;;;;;;3.11;77.46;98592.59;5056145;28;20040;-84
2022/01/05 09:23:06;;;;;;;12.57;5.35;;;;;;;3.32;76.71;98601.00;5054441;28;20017;-84
2022/01/05 09:25:32;;;;;;;12.48;5.47;;;;;;;3.33;77.38;98599.97;5055881;28;20032;-84
2022/01/05 09:27:57;;;;;;;10.70;5.20;;;;;;;3.32;76.73;98600.19;5053161;28;20078;-84
2022/01/05 09:30:23;;;;;;;10.93;4.15;;;;;;;3.32;76.64;98614.47;5054227;28;20618;-84
2022/01/05 09:32:49;;;;;;;14.75;7.13;;;;;;;3.19;76.95;98614.81;5051476;28;20557;-84
2022/01/05 09:35:17;;;;;;;13.85;6.57;;;;;;;3.20;76.86;98602.97;5055994;28;20054;-84
2022/01/05 09:41:56;;;;;;;9.57;4.78;;;;;;;3.38;76.67;98613.50;5056019;28;20488;-84
2022/01/05 09:43:22;;;;;;;19.02;5.45;;;;;;;3.14;77.27;98615.53;5058248;28;20804;-84
2022/01/05 09:46:16;;;;;;;13.90;5.07;;;;;;;3.01;78.05;98612.09;5056841;28;20021;-83
2022/01/05 09:49:05;;;;;;;29.80;7.73;;;;;;;3.19;77.74;98630.97;5056083;28;20487;-84
2022/01/05 09:51:33;;;;;;;12.18;5.18;;;;;;;3.05;79.08;98625.91;5059825;28;20562;-84
2022/01/05 09:54:00;;;;;;;15.57;6.40;;;;;;;3.49;77.57;98635.22;5056814;28;20302;-84
2022/01/05 09:56:26;;;;;;;18.63;5.35;;;;;;;3.69;78.10;98625.81;5057590;28;20549;-84
2022/01/05 09:58:52;;;;;;;12.77;5.78;;;;;;;3.43;77.50;98631.63;5056948;28;20051;-84
2022/01/05 10:01:18;;;;;;;11.15;5.03;;;;;;;3.84;77.94;98634.09;5057849;28;20562;-84
2022/01/05 10:03:43;;;;;;;12.55;5.47;;;;;;;3.71;77.04;98629.06;5057580;28;20032;-84
2022/01/05 10:06:12;;;;;;;15.73;6.40;;;;;;;3.43;77.53;98625.41;5057614;28;20017;-85
2022/01/05 10:08:50;;;;;;;11.88;4.53;;;;;;;3.54;77.69;98629.91;5057908;28;20124;-83
2022/01/05 10:11:15;;;;;;;13.85;5.95;;;;;;;3.23;78.00;98626.72;5054546;28;20546;-84
2022/01/05 10:13:41;;;;;;;13.48;4.90;;;;;;;3.72;77.12;98628.03;5057971;28;20017;-84
2022/01/05 10:16:08;;;;;;;21.40;6.32;;;;;;;3.79;76.80;98634.03;5055804;28;20029;-85
2022/01/05 10:18:44;;;;;;;10.52;5.25;;;;;;;3.68;76.47;98624.97;5056227;28;20116;-84
2022/01/05 10:21:12;;;;;;;10.30;4.45;;;;;;;3.83;76.54;98632.50;5056089;28;20074;-85
2022/01/05 10:23:44;;;;;;;11.13;3.92;;;;;;;3.68;76.57;98622.28;5052622;28;20039;-84
2022/01/05 10:26:24;;;;;;;17.27;4.88;;;;;;;3.11;78.10;98630.28;5055887;28;20059;-84
2022/01/05 10:28:52;;;;;;;14.80;4.05;;;;;;;3.63;77.87;98630.31;5053996;28;20028;-85
2022/01/05 10:31:35;;;;;;;10.25;4.20;;;;;;;3.44;78.52;98637.84;5052475;28;20063;-84
2022/01/05 10:34:21;;;;;;;12.35;5.47;;;;;;;3.51;78.25;98633.09;5057038;28;20059;-85
2022/01/05 10:36:49;;;;;;;16.50;5.78;;;;;;;3.84;78.00;98639.50;5055478;28;20037;-85
2022/01/05 10:39:20;;;;;;;13.40;5.18;;;;;;;3.77;77.84;98622.69;5055594;28;20510;-86
2022/01/05 10:41:46;;;;;;;12.48;4.43;;;;;;;3.38;79.87;98635.06;5054344;28;20450;-85
2022/01/05 10:44:18;;;;;;;12.55;5.88;;;;;;;3.49;79.98;98624.44;5053690;28;20075;-84
2022/01/05 10:46:51;;;;;;;12.75;3.95;;;;;;;3.48;80.22;98647.03;5053819;28;20059;-86
2022/01/05 10:49:24;;;;;;;15.32;5.18;;;;;;;3.40;81.01;98636.72;5056646;28;20017;-86
2022/01/05 10:51:50;;;;;;;8.85;4.40;;;;;;;3.39;81.60;98635.88;5054998;28;20384;-86
2022/01/05 10:57:08;;;;;;;9.27;4.10;;;;;;;3.64;80.10;98631.94;5058525;28;20035;-85
2022/01/05 10:59:36;;;;;;;15.85;6.00;;;;;;;3.50;81.42;98634.16;5071216;28;20029;-85
2022/01/05 11:02:24;;;;;;;8.80;3.03;;;;;;;3.48;81.22;98634.41;5055253;28;20025;-85
2022/01/05 11:04:50;;;;;;;13.20;4.80;;;;;;;3.35;81.53;98627.47;5056783;28;20095;-86
2022/01/05 11:07:21;;;;;;;10.45;3.33;;;;;;;3.65;81.52;98630.06;5055880;28;20602;-85
2022/01/05 11:09:56;;;;;;;18.83;5.95;;;;;;;3.79;81.18;98631.34;5056411;28;20542;-86
2022/01/05 11:12:35;;;;;;;10.10;4.00;;;;;;;3.57;81.23;98626.72;5071051;28;20040;-86
2022/01/05 11:15:24;;;;;;;10.75;5.30;;;;;;;3.37;81.40;98638.81;5056014;28;20577;-85
2022/01/05 11:18:11;;;;;;;11.00;4.45;;;;;;;3.11;82.50;98641.06;5057704;28;20029;-84
2022/01/05 11:20:42;;;;;;;12.10;4.45;;;;;;;3.39;82.56;98652.03;5055802;28;20806;-87
2022/01/05 11:23:08;;;;;;;16.90;5.28;;;;;;;3.19;83.24;98674.06;5058068;28;20032;-85
2022/01/05 11:25:36;;;;;;;15.75;4.57;;;;;;;3.34;82.82;98666.25;5055827;28;20047;-86
2022/01/05 11:28:01;;;;;;;8.95;3.33;;;;;;;3.69;83.07;98656.28;5053111;28;20028;-86
2022/01/05 11:33:29;;;;;;;10.30;3.88;;;;;;;3.41;83.58;98676.06;5050872;28;20771;-86
2022/01/05 11:35:54;;;;;;;12.77;5.30;;;;;;;3.50;83.76;98661.09;5055614;28;20870;-85
2022/01/05 11:38:20;;;;;;;14.27;5.00;;;;;;;3.61;82.58;98660.22;5049816;28;20049;-86
2022/01/05 11:40:55;;;;;;;7.68;3.17;;;;;;;3.46;82.99;98674.25;5053451;28;20033;-85
2022/01/05 11:43:32;;;;;;;10.32;4.25;;;;;;;3.35;83.35;98662.50;5056423;28;20078;-85
2022/01/05 11:45:57;;;;;;;9.07;4.80;;;;;;;3.17;85.22;98671.63;5052658;28;20473;-86
2022/01/05 11:48:25;;;;;;;10.70;4.40;;;;;;;3.17;85.19;98671.63;5057006;28;20035;-85
2022/01/05 11:50:56;;;;;;;11.57;4.15;;;;;;;3.06;85.66;98673.31;5054001;28;20035;-85
2022/01/05 11:53:42;;;;;;;9.65;4.68;;;;;;;3.53;84.38;98684.06;5056606;28;20029;-86
2022/01/05 11:56:09;;;;;;;10.82;4.32;;;;;;;3.40;84.39;98686.00;5055647;28;20040;-85
2022/01/05 11:58:47;;;;;;;7.85;3.55;;;;;;;3.26;85.04;98680.94;5052786;28;20024;-86
2022/01/05 12:01:13;;;;;;;14.23;5.95;;;;;;;3.12;84.90;98683.13;5054673;28;20031;-85
2022/01/05 12:03:50;;;;;;;9.07;3.88;;;;;;;3.43;84.44;98695.50;5053520;28;20028;-86